createdAt,value
2022-10-18T00:01:07.987Z,21.80
2022-10-18T00:03:36.030Z,22.35
2022-10-18T00:06:05.155Z,22.02
2022-10-18T00:08:33.206Z,21.95
2022-10-18T00:11:00.961Z,23.45
2022-10-18T00:13:28.888Z,22.63
2022-10-18T00:15:59.878Z,22.85
2022-10-18T00:18:28.201Z,24.35
2022-10-18T00:20:59.834Z,23.08
2022-10-18T00:23:29.150Z,23.08
2022-10-18T00:26:10.382Z,23.55
2022-10-18T00:28:39.146Z,23.15
2022-10-18T00:31:19.306Z,23.63
2022-10-18T00:33:50.753Z,21.33
2022-10-18T00:36:19.550Z,23.55
2022-10-18T00:38:48.061Z,24.83
2022-10-18T00:41:19.889Z,23.65
2022-10-18T00:43:59.112Z,23.73
2022-10-18T00:46:38.390Z,22.70
2022-10-18T00:49:20.186Z,23.65
2022-10-18T00:51:56.791Z,22.85
2022-10-18T00:54:26.446Z,23.48
2022-10-18T00:56:54.368Z,23.52
2022-10-18T00:59:23.366Z,24.33
2022-10-18T01:01:51.467Z,24.55
2022-10-18T01:04:20.878Z,25.17
2022-10-18T01:07:00.723Z,28.00
2022-10-18T01:10:07.932Z,26.33
2022-10-18T01:13:23.408Z,25.98
2022-10-18T01:16:16.327Z,27.80
2022-10-18T01:18:54.794Z,28.45
2022-10-18T01:21:28.587Z,28.83
2022-10-18T01:24:05.622Z,30.23
2022-10-18T01:26:58.030Z,28.50
2022-10-18T01:29:37.400Z,29.30
2022-10-18T01:32:20.203Z,28.00
2022-10-18T01:34:51.285Z,28.77
2022-10-18T01:37:21.888Z,28.08
2022-10-18T01:39:54.250Z,27.92
2022-10-18T01:42:22.137Z,28.40
2022-10-18T01:44:52.726Z,26.42
2022-10-18T01:47:21.577Z,27.58
2022-10-18T01:49:49.464Z,26.90
2022-10-18T01:52:17.576Z,28.17
2022-10-18T01:54:49.944Z,26.75
2022-10-18T01:57:26.678Z,28.10
2022-10-18T02:00:02.915Z,24.70
2022-10-18T02:02:45.184Z,26.20
2022-10-18T02:05:21.470Z,25.80
2022-10-18T02:08:23.986Z,25.85
2022-10-18T02:11:12.844Z,25.48
2022-10-18T02:13:49.986Z,25.35
2022-10-18T02:16:22.870Z,24.90
2022-10-18T02:18:58.842Z,24.88
2022-10-18T02:21:29.457Z,25.50
2022-10-18T02:23:59.114Z,25.55
2022-10-18T02:26:27.090Z,23.50
2022-10-18T02:28:55.128Z,24.55
2022-10-18T02:31:29.891Z,24.75
2022-10-18T02:36:56.622Z,24.35
2022-10-18T02:39:34.040Z,24.38
2022-10-18T02:42:06.578Z,24.83
2022-10-18T02:44:35.452Z,26.40
2022-10-18T02:47:04.654Z,24.35
2022-10-18T02:49:32.364Z,24.60
2022-10-18T02:52:00.169Z,24.38
2022-10-18T02:54:28.034Z,26.35
2022-10-18T02:56:55.824Z,26.30
2022-10-18T02:59:23.570Z,24.65
2022-10-18T03:01:51.391Z,25.88
2022-10-18T03:04:19.274Z,24.27
2022-10-18T03:06:47.060Z,24.23
2022-10-18T03:09:14.841Z,22.02
2022-10-18T03:11:42.577Z,22.27
2022-10-18T03:14:10.433Z,23.48
2022-10-18T03:16:38.227Z,24.92
2022-10-18T03:19:06.024Z,23.92
2022-10-18T03:21:33.768Z,22.23
2022-10-18T03:24:02.612Z,22.70
2022-10-18T03:26:30.366Z,21.92
2022-10-18T03:28:58.359Z,22.10
2022-10-18T03:31:26.287Z,24.10
2022-10-18T03:33:54.124Z,22.73
2022-10-18T03:36:21.971Z,25.40
2022-10-18T03:38:49.749Z,24.13
2022-10-18T03:41:17.494Z,24.42
2022-10-18T03:43:45.267Z,23.50
2022-10-18T03:46:13.408Z,24.65
2022-10-18T03:48:41.357Z,24.60
2022-10-18T03:51:09.185Z,24.45
2022-10-18T03:53:37.044Z,24.88
2022-10-18T03:56:05.131Z,22.90
2022-10-18T04:01:01.772Z,22.98
2022-10-18T04:03:29.542Z,23.17
2022-10-18T04:05:57.331Z,21.25
2022-10-18T04:08:25.280Z,20.17
2022-10-18T04:10:53.332Z,21.25
2022-10-18T04:13:21.139Z,21.63
2022-10-18T04:15:48.887Z,20.17
2022-10-18T04:18:16.869Z,20.63
2022-10-18T04:20:44.839Z,20.98
2022-10-18T04:23:12.616Z,20.02
2022-10-18T04:25:40.516Z,19.58
2022-10-18T04:28:08.322Z,19.30
2022-10-18T04:30:36.087Z,20.00
2022-10-18T04:33:03.855Z,19.98
2022-10-18T04:35:31.617Z,20.20
2022-10-18T04:37:59.492Z,21.33
2022-10-18T04:40:27.249Z,20.60
2022-10-18T04:42:55.591Z,21.27
2022-10-18T04:45:23.362Z,20.02
2022-10-18T04:47:51.256Z,21.08
2022-10-18T04:50:19.206Z,20.90
2022-10-18T04:52:47.269Z,24.13
2022-10-18T04:55:15.142Z,22.80
2022-10-18T04:57:42.928Z,21.15
2022-10-18T05:00:17.822Z,20.83
2022-10-18T05:02:48.655Z,20.92
2022-10-18T05:05:16.691Z,21.98
2022-10-18T05:07:44.467Z,19.63
2022-10-18T05:10:12.334Z,19.60
2022-10-18T05:12:40.154Z,20.35
2022-10-18T05:15:08.269Z,19.60
2022-10-18T05:17:36.352Z,19.38
2022-10-18T05:20:04.559Z,19.77
2022-10-18T05:22:32.764Z,19.02
2022-10-18T05:25:00.792Z,18.60
2022-10-18T05:27:31.540Z,24.60
2022-10-18T05:30:01.424Z,19.33
2022-10-18T05:32:32.718Z,18.60
2022-10-18T05:35:00.960Z,25.02
2022-10-18T05:37:28.788Z,19.98
2022-10-18T05:39:56.959Z,21.27
2022-10-18T05:42:25.418Z,19.50
2022-10-18T05:44:53.315Z,19.83
2022-10-18T05:47:21.217Z,19.67
2022-10-18T05:49:49.130Z,22.20
2022-10-18T05:52:20.092Z,19.17
2022-10-18T05:54:47.844Z,21.83
2022-10-18T05:57:15.970Z,21.85
2022-10-18T05:59:44.919Z,22.27
2022-10-18T06:02:13.430Z,23.20
2022-10-18T06:04:41.450Z,21.25
2022-10-18T06:07:12.864Z,21.48
2022-10-18T06:09:41.511Z,23.52
2022-10-18T06:12:09.552Z,23.90
2022-10-18T06:14:38.120Z,20.73
2022-10-18T06:17:05.895Z,19.27
2022-10-18T06:19:33.692Z,18.45
2022-10-18T06:22:01.560Z,18.35
2022-10-18T06:24:29.268Z,19.27
2022-10-18T06:26:57.893Z,18.70
2022-10-18T06:29:25.654Z,18.25
2022-10-18T06:31:53.425Z,19.13
2022-10-18T06:34:21.296Z,15.43
2022-10-18T06:36:49.047Z,15.95
2022-10-18T06:39:16.760Z,19.00
2022-10-18T06:41:44.513Z,16.42
2022-10-18T06:44:21.391Z,16.00
2022-10-18T06:46:49.685Z,13.43
2022-10-18T06:49:19.216Z,14.07
2022-10-18T06:51:47.325Z,14.13
2022-10-18T06:54:18.466Z,14.63
2022-10-18T06:56:47.076Z,12.60
2022-10-18T06:59:15.362Z,13.38
2022-10-18T07:01:43.748Z,14.27
2022-10-18T07:04:11.696Z,12.95
2022-10-18T07:06:39.427Z,11.82
2022-10-18T07:09:07.225Z,10.40
2022-10-18T07:11:35.092Z,9.45
2022-10-18T07:14:04.813Z,9.95
2022-10-18T07:16:33.705Z,10.20
2022-10-18T07:19:01.568Z,9.00
2022-10-18T07:21:29.754Z,9.32
2022-10-18T07:23:57.684Z,8.23
2022-10-18T07:26:29.014Z,8.48
2022-10-18T07:29:05.070Z,7.50
2022-10-18T07:31:33.378Z,7.93
2022-10-18T07:34:03.857Z,7.05
2022-10-18T07:36:31.688Z,7.07
2022-10-18T07:38:59.676Z,6.88
2022-10-18T07:41:27.538Z,6.20
2022-10-18T07:43:55.397Z,5.63
2022-10-18T07:46:23.348Z,6.10
2022-10-18T07:48:51.884Z,5.82
2022-10-18T07:51:20.768Z,5.10
2022-10-18T07:53:49.046Z,4.55
2022-10-18T07:56:21.043Z,5.13
2022-10-18T07:58:51.672Z,4.85
2022-10-18T08:01:21.356Z,4.70
2022-10-18T08:03:49.781Z,5.03
2022-10-18T08:06:19.464Z,4.55
2022-10-18T08:08:47.772Z,4.30
2022-10-18T08:11:18.523Z,3.92
2022-10-18T08:13:46.787Z,4.20
2022-10-18T08:16:17.913Z,3.40
2022-10-18T08:18:45.710Z,3.40
2022-10-18T08:21:15.261Z,3.45
2022-10-18T08:23:43.253Z,3.75
2022-10-18T08:26:15.516Z,3.20
2022-10-18T08:28:53.588Z,3.45
2022-10-18T08:31:26.551Z,3.00
2022-10-18T08:33:57.048Z,2.80
2022-10-18T08:36:25.099Z,2.63
2022-10-18T08:38:53.171Z,2.75
2022-10-18T08:41:43.071Z,3.03
2022-10-18T08:44:21.590Z,2.63
2022-10-18T08:47:02.952Z,2.30
2022-10-18T08:49:38.442Z,2.65
2022-10-18T08:52:24.076Z,2.15
2022-10-18T08:55:29.500Z,2.67
2022-10-18T08:57:58.547Z,1.92
2022-10-18T09:00:30.646Z,2.17
2022-10-18T09:03:33.369Z,1.70
2022-10-18T09:06:09.757Z,1.50
2022-10-18T09:09:03.072Z,1.30
2022-10-18T09:11:49.502Z,1.40
2022-10-18T09:14:33.263Z,2.10
2022-10-18T09:17:16.138Z,2.10
2022-10-18T09:22:52.720Z,1.85
2022-10-18T09:25:25.737Z,2.00
2022-10-18T09:27:56.324Z,1.85
2022-10-18T09:30:36.323Z,1.80
2022-10-18T09:33:19.838Z,1.63
2022-10-18T09:35:57.878Z,1.60
2022-10-18T09:38:31.238Z,1.98
2022-10-18T09:41:08.663Z,1.20
2022-10-18T09:43:59.434Z,1.30
2022-10-18T09:46:37.162Z,1.05
2022-10-18T09:49:20.106Z,1.30
2022-10-18T09:51:50.519Z,1.20
2022-10-18T09:54:43.461Z,1.20
2022-10-18T09:57:34.200Z,1.58
2022-10-18T10:00:05.057Z,1.60
2022-10-18T10:02:33.065Z,1.40
2022-10-18T10:05:01.049Z,1.60
2022-10-18T10:07:35.281Z,1.48
2022-10-18T10:10:23.205Z,1.20
2022-10-18T10:13:22.714Z,1.30
2022-10-18T10:15:56.782Z,1.10
2022-10-18T10:18:34.230Z,1.20
2022-10-18T10:21:05.867Z,1.27
2022-10-18T10:23:39.100Z,1.20
2022-10-18T10:26:30.138Z,1.48
2022-10-18T10:28:58.298Z,1.00
2022-10-18T10:31:32.243Z,1.13
2022-10-18T10:34:15.084Z,1.35
2022-10-18T10:36:51.575Z,1.30
2022-10-18T10:39:21.736Z,0.82
2022-10-18T10:42:01.001Z,1.30
2022-10-18T10:44:36.058Z,1.20
2022-10-18T10:47:04.442Z,1.13
2022-10-18T10:49:55.982Z,1.23
2022-10-18T10:52:28.298Z,1.50
2022-10-18T10:55:11.033Z,1.20
2022-10-18T10:57:47.193Z,1.20
2022-10-18T11:00:33.670Z,1.20
2022-10-18T11:03:29.617Z,1.10
2022-10-18T11:06:00.674Z,1.10
2022-10-18T11:08:38.146Z,1.40
2022-10-18T11:11:27.914Z,1.00
2022-10-18T11:17:08.532Z,1.05
2022-10-18T11:19:39.313Z,1.30
2022-10-18T11:22:14.209Z,1.10
2022-10-18T11:24:42.262Z,1.30
2022-10-18T11:27:21.128Z,1.10
2022-10-18T11:29:56.017Z,0.90
2022-10-18T11:32:44.982Z,1.10
2022-10-18T11:35:29.502Z,1.13
2022-10-18T11:38:12.115Z,0.95
2022-10-18T11:41:04.100Z,1.30
2022-10-18T11:44:04.347Z,1.02
2022-10-18T11:46:53.415Z,1.50
2022-10-18T11:49:28.431Z,1.05
2022-10-18T11:52:22.758Z,1.08
2022-10-18T11:55:12.078Z,1.30
2022-10-18T11:58:04.585Z,1.20
2022-10-18T12:00:39.329Z,1.10
2022-10-18T12:03:16.038Z,1.30
2022-10-18T12:05:47.197Z,1.20
2022-10-18T12:08:19.931Z,1.05
2022-10-18T12:11:05.590Z,1.00
2022-10-18T12:13:47.105Z,1.10
2022-10-18T12:16:17.452Z,1.30
2022-10-18T12:19:00.157Z,0.90
2022-10-18T12:21:31.252Z,1.35
2022-10-18T12:24:16.152Z,1.90
2022-10-18T12:29:21.609Z,1.17
2022-10-18T12:31:51.339Z,1.40
2022-10-18T12:34:25.513Z,1.38
2022-10-18T12:40:05.486Z,1.15
2022-10-18T12:42:40.515Z,1.08
2022-10-18T12:45:27.806Z,1.05
2022-10-18T12:48:00.426Z,1.25
2022-10-18T12:50:30.528Z,1.73
2022-10-18T12:53:10.315Z,1.00
2022-10-18T12:55:40.570Z,1.60
2022-10-18T12:58:14.097Z,1.20
2022-10-18T13:00:41.905Z,1.23
2022-10-18T13:03:18.328Z,1.20
2022-10-18T13:05:54.694Z,1.08
2022-10-18T13:08:29.137Z,1.30
2022-10-18T13:11:12.026Z,1.63
2022-10-18T13:13:58.100Z,1.40
2022-10-18T13:16:37.575Z,0.85
2022-10-18T13:19:37.930Z,1.23
2022-10-18T13:22:30.759Z,1.10
2022-10-18T13:25:15.795Z,1.10
2022-10-18T13:30:27.583Z,1.00
2022-10-18T13:33:40.410Z,1.00
2022-10-18T13:36:22.659Z,1.52
2022-10-18T13:39:02.339Z,1.10
2022-10-18T13:41:58.872Z,1.38
2022-10-18T13:44:40.570Z,1.40
2022-10-18T13:47:09.934Z,1.35
2022-10-18T13:49:44.167Z,1.20
2022-10-18T13:52:34.574Z,1.20
2022-10-18T13:55:43.313Z,1.25
2022-10-18T13:58:23.422Z,1.77
2022-10-18T14:01:07.107Z,1.17
2022-10-18T14:03:58.918Z,1.45
2022-10-18T14:06:40.834Z,1.30
2022-10-18T14:09:32.561Z,1.10
2022-10-18T14:12:41.460Z,1.30
2022-10-18T14:15:15.710Z,1.60
2022-10-18T14:17:49.183Z,1.50
2022-10-18T14:20:49.597Z,1.42
2022-10-18T14:23:36.586Z,1.83
2022-10-18T14:26:31.018Z,1.73
2022-10-18T14:29:16.686Z,1.13
2022-10-18T14:31:54.392Z,1.50
2022-10-18T14:34:22.789Z,2.13
2022-10-18T14:36:51.630Z,1.30
2022-10-18T14:39:23.867Z,1.10
2022-10-18T14:41:56.632Z,1.60
2022-10-18T14:44:32.187Z,1.40
2022-10-18T14:47:21.820Z,1.30
2022-10-18T14:49:50.666Z,1.23
2022-10-18T14:52:26.070Z,1.13
2022-10-18T14:54:58.661Z,1.40
2022-10-18T14:57:37.646Z,1.27
2022-10-18T15:00:08.961Z,1.15
2022-10-18T15:02:38.559Z,1.23
2022-10-18T15:05:17.153Z,1.30
2022-10-18T15:07:45.257Z,1.80
2022-10-18T15:10:25.504Z,1.20
2022-10-18T15:13:10.528Z,1.00
2022-10-18T15:15:40.631Z,1.40
2022-10-18T15:18:15.454Z,1.10
2022-10-18T15:20:43.376Z,1.27
2022-10-18T15:23:26.804Z,1.08
2022-10-18T15:26:04.187Z,1.50
2022-10-18T15:28:36.192Z,1.40
2022-10-18T15:31:05.207Z,1.20
2022-10-18T15:33:34.662Z,1.70
2022-10-18T15:36:20.166Z,1.50
2022-10-18T15:38:50.033Z,1.48
2022-10-18T15:41:38.830Z,1.45
2022-10-18T15:44:16.729Z,1.55
2022-10-18T15:46:44.551Z,1.38
2022-10-18T15:49:51.221Z,1.63
2022-10-18T15:52:39.358Z,1.75
2022-10-18T15:55:29.158Z,1.70
2022-10-18T15:58:33.812Z,1.70
2022-10-18T16:01:04.325Z,1.40
2022-10-18T16:03:36.412Z,1.73
2022-10-18T16:06:08.021Z,1.58
2022-10-18T16:08:40.683Z,1.33
2022-10-18T16:11:15.200Z,1.52
2022-10-18T16:13:43.736Z,1.88
2022-10-18T16:16:18.701Z,2.00
2022-10-18T16:18:47.323Z,1.40
2022-10-18T16:21:18.815Z,1.90
2022-10-18T16:23:47.594Z,1.48
2022-10-18T16:26:16.659Z,1.60
2022-10-18T16:28:45.084Z,1.80
2022-10-18T16:31:17.415Z,1.67
2022-10-18T16:33:46.148Z,1.73
2022-10-18T16:36:19.582Z,1.65
2022-10-18T16:38:48.081Z,1.63
2022-10-18T16:41:16.160Z,1.63
2022-10-18T16:43:46.215Z,1.83
2022-10-18T16:46:18.430Z,1.77
2022-10-18T16:48:47.636Z,1.98
2022-10-18T16:51:15.540Z,2.00
2022-10-18T16:53:43.949Z,1.60
2022-10-18T16:56:20.884Z,2.10
2022-10-18T16:58:49.336Z,2.15
2022-10-18T17:01:19.882Z,2.97
2022-10-18T17:03:48.666Z,3.25
2022-10-18T17:06:17.863Z,5.32
2022-10-18T17:08:46.430Z,4.70
2022-10-18T17:11:15.565Z,5.68
2022-10-18T17:13:44.134Z,3.33
2022-10-18T17:16:30.758Z,3.47
2022-10-18T17:19:00.811Z,2.85
2022-10-18T17:21:30.020Z,2.92
2022-10-18T17:24:06.000Z,3.00
2022-10-18T17:26:34.445Z,3.40
2022-10-18T17:29:05.017Z,2.88
2022-10-18T17:31:33.674Z,2.60
2022-10-18T17:34:02.258Z,2.75
2022-10-18T17:36:32.817Z,2.92
2022-10-18T17:39:01.148Z,2.60
2022-10-18T17:41:29.247Z,2.60
2022-10-18T17:43:57.306Z,2.95
2022-10-18T17:46:25.496Z,2.60
2022-10-18T17:48:54.290Z,3.40
2022-10-18T17:51:22.688Z,3.25
2022-10-18T17:53:50.675Z,2.55
2022-10-18T17:56:18.605Z,2.60
2022-10-18T17:58:49.765Z,3.22
2022-10-18T18:01:23.167Z,2.90
2022-10-18T18:03:56.726Z,3.08
2022-10-18T18:06:30.943Z,2.88
2022-10-18T18:09:01.162Z,3.13
2022-10-18T18:11:29.352Z,2.80
2022-10-18T18:13:57.959Z,2.95
2022-10-18T18:16:29.284Z,2.58
2022-10-18T18:18:58.935Z,2.35
2022-10-18T18:21:27.576Z,2.47
2022-10-18T18:23:56.261Z,2.80
2022-10-18T18:26:24.617Z,2.28
2022-10-18T18:28:52.922Z,3.08
2022-10-18T18:31:23.556Z,2.78
2022-10-18T18:33:53.169Z,2.50
2022-10-18T18:36:21.931Z,2.35
2022-10-18T18:38:56.819Z,2.72
2022-10-18T18:41:27.921Z,3.40
2022-10-18T18:44:01.420Z,2.92
2022-10-18T18:46:33.010Z,2.78
2022-10-18T18:49:01.087Z,3.00
2022-10-18T18:51:28.994Z,2.70
2022-10-18T18:53:56.889Z,3.33
2022-10-18T18:56:26.998Z,3.65
2022-10-18T18:58:56.697Z,3.13
2022-10-18T19:01:27.365Z,3.10
2022-10-18T19:03:59.003Z,3.97
2022-10-18T19:06:30.162Z,3.20
2022-10-18T19:09:03.972Z,3.38
2022-10-18T19:11:34.679Z,3.78
2022-10-18T19:14:03.698Z,3.55
2022-10-18T19:16:34.509Z,3.05
2022-10-18T19:19:04.922Z,3.15
2022-10-18T19:21:35.857Z,3.25
2022-10-18T19:24:04.908Z,3.83
2022-10-18T19:26:44.689Z,3.67
2022-10-18T19:29:16.685Z,3.17
2022-10-18T19:31:45.277Z,2.75
2022-10-18T19:34:14.607Z,3.80
2022-10-18T19:36:45.064Z,3.63
2022-10-18T19:39:18.533Z,2.88
2022-10-18T19:41:49.395Z,3.30
2022-10-18T19:44:19.006Z,3.50
2022-10-18T19:46:48.233Z,3.85
2022-10-18T19:49:17.414Z,4.03
2022-10-18T19:51:45.566Z,4.32
2022-10-18T19:54:14.611Z,5.03
2022-10-18T19:56:43.046Z,4.20
2022-10-18T19:59:12.394Z,5.00
2022-10-18T20:01:41.032Z,5.00
2022-10-18T20:04:10.188Z,4.95
2022-10-18T20:06:39.038Z,4.97
2022-10-18T20:09:08.248Z,5.07
2022-10-18T20:11:36.910Z,6.53
2022-10-18T20:14:09.578Z,4.75
2022-10-18T20:16:37.557Z,4.93
2022-10-18T20:19:07.313Z,5.32
2022-10-18T20:21:36.015Z,4.85
2022-10-18T20:24:05.698Z,5.60
2022-10-18T20:26:35.828Z,6.18
2022-10-18T20:29:04.851Z,6.00
2022-10-18T20:31:37.195Z,6.10
2022-10-18T20:34:11.974Z,6.57
2022-10-18T20:36:40.391Z,6.40
2022-10-18T20:39:09.122Z,6.28
2022-10-18T20:41:40.865Z,6.32
2022-10-18T20:44:13.895Z,5.75
2022-10-18T20:46:42.638Z,5.90
2022-10-18T20:49:16.987Z,6.05
2022-10-18T20:51:45.270Z,6.20
2022-10-18T20:54:13.420Z,7.10
2022-10-18T20:56:41.551Z,6.80
2022-10-18T20:59:10.532Z,7.20
2022-10-18T21:01:39.672Z,6.43
2022-10-18T21:04:09.768Z,5.93
2022-10-18T21:06:43.120Z,6.28
2022-10-18T21:09:14.657Z,6.15
2022-10-18T21:11:44.982Z,6.05
2022-10-18T21:14:17.318Z,5.80
2022-10-18T21:16:45.975Z,5.47
2022-10-18T21:19:27.218Z,5.95
2022-10-18T21:21:57.243Z,6.10
2022-10-18T21:24:25.878Z,5.13
2022-10-18T21:26:54.577Z,5.45
2022-10-18T21:29:24.585Z,6.25
2022-10-18T21:31:59.172Z,5.32
2022-10-18T21:34:27.699Z,5.10
2022-10-18T21:36:56.096Z,5.07
2022-10-18T21:41:58.503Z,4.82
2022-10-18T21:44:26.883Z,5.05
2022-10-18T21:46:55.191Z,5.00
2022-10-18T21:49:25.108Z,4.70
2022-10-18T21:51:54.693Z,5.32
2022-10-18T21:54:23.309Z,4.45
2022-10-18T21:56:54.248Z,4.88
2022-10-18T21:59:24.339Z,4.63
2022-10-18T22:01:53.151Z,4.20
2022-10-18T22:04:23.414Z,4.88
2022-10-18T22:06:52.374Z,4.85
2022-10-18T22:09:21.972Z,4.45
2022-10-18T22:11:52.982Z,5.15
2022-10-18T22:14:22.233Z,4.32
2022-10-18T22:16:51.175Z,4.28
2022-10-18T22:19:19.113Z,4.65
2022-10-18T22:21:47.305Z,4.57
2022-10-18T22:24:15.569Z,4.53
2022-10-18T22:26:44.866Z,4.68
2022-10-18T22:29:16.231Z,4.95
2022-10-18T22:31:50.171Z,4.97
2022-10-18T22:34:23.329Z,5.10
2022-10-18T22:36:51.888Z,4.63
2022-10-18T22:39:20.108Z,4.43
2022-10-18T22:41:51.988Z,4.70
2022-10-18T22:44:19.761Z,4.50
2022-10-18T22:46:47.477Z,5.25
2022-10-18T22:49:15.424Z,5.05
2022-10-18T22:51:43.265Z,5.65
2022-10-18T22:54:11.371Z,5.25
2022-10-18T22:56:39.293Z,6.75
2022-10-18T22:59:07.030Z,6.40
2022-10-18T23:01:35.389Z,5.97
2022-10-18T23:04:04.047Z,6.63
2022-10-18T23:06:34.710Z,6.25
2022-10-18T23:09:06.269Z,6.30
2022-10-18T23:11:35.239Z,6.43
2022-10-18T23:14:04.453Z,6.30
2022-10-18T23:16:32.830Z,6.25
2022-10-18T23:19:00.764Z,7.38
2022-10-18T23:21:29.158Z,7.00
2022-10-18T23:23:57.455Z,6.55
2022-10-18T23:26:27.574Z,5.85
2022-10-18T23:28:56.225Z,5.35
2022-10-18T23:31:29.956Z,5.90
2022-10-18T23:34:01.415Z,5.18
2022-10-18T23:36:29.615Z,5.13
2022-10-18T23:38:57.858Z,6.10
2022-10-18T23:41:25.944Z,5.32
2022-10-18T23:43:53.969Z,5.15
2022-10-18T23:46:22.420Z,4.75
2022-10-18T23:48:50.504Z,5.03
2022-10-18T23:51:18.625Z,4.80
2022-10-18T23:53:46.568Z,4.80
2022-10-18T23:56:16.376Z,5.30
2022-10-18T23:58:45.083Z,5.32
